createdAt,value
2022-10-05T00:00:20.106Z,1024.6
2022-10-05T00:05:20.171Z,1024.5
2022-10-05T00:10:20.106Z,1024.6
2022-10-05T00:15:20.105Z,1024.5
2022-10-05T00:20:20.103Z,1024.3
2022-10-05T00:25:20.113Z,1024.2
2022-10-05T00:30:20.105Z,1024.2
2022-10-05T00:35:20.111Z,1024.1
2022-10-05T00:40:20.113Z,1024.3
2022-10-05T00:45:20.097Z,1024.5
2022-10-05T00:50:20.106Z,1024.4
2022-10-05T00:55:20.104Z,1024.5
2022-10-05T01:00:20.132Z,1024.5
2022-10-05T01:05:20.103Z,1024.4
2022-10-05T01:10:20.100Z,1024.2
2022-10-05T01:15:20.102Z,1024.3
2022-10-05T01:20:20.098Z,1024.4
2022-10-05T01:25:20.104Z,1024.4
2022-10-05T01:30:20.101Z,1024.4
2022-10-05T01:35:20.103Z,1024.5
2022-10-05T01:40:20.104Z,1024.5
2022-10-05T01:45:20.108Z,1024.2
2022-10-05T01:50:20.095Z,1024
2022-10-05T01:55:20.115Z,1024
2022-10-05T02:00:20.097Z,1024
2022-10-05T02:05:20.103Z,1024
2022-10-05T02:10:20.097Z,1024.1
2022-10-05T02:15:20.113Z,1024.1
2022-10-05T02:20:20.099Z,1024.1
2022-10-05T02:25:20.108Z,1024.1
2022-10-05T02:30:20.103Z,1024.2
2022-10-05T02:35:20.107Z,1024.2
2022-10-05T02:40:20.103Z,1024.2
2022-10-05T02:45:20.115Z,1024.1
2022-10-05T02:50:20.114Z,1024.2
2022-10-05T02:55:20.108Z,1024.3
2022-10-05T03:00:20.119Z,1024.2
2022-10-05T03:05:20.146Z,1024.2
2022-10-05T03:10:20.111Z,1024
2022-10-05T03:15:20.105Z,1024
2022-10-05T03:20:20.097Z,1023.9
2022-10-05T03:25:20.109Z,1023.8
2022-10-05T03:30:20.103Z,1023.7
2022-10-05T03:35:20.101Z,1023.7
2022-10-05T03:40:20.098Z,1023.6
2022-10-05T03:45:20.109Z,1023.6
2022-10-05T03:50:20.099Z,1023.7
2022-10-05T03:55:20.104Z,1023.7
2022-10-05T04:00:20.100Z,1023.8
2022-10-05T04:05:20.123Z,1023.8
2022-10-05T04:10:20.103Z,1023.8
2022-10-05T04:15:20.115Z,1023.8
2022-10-05T04:20:20.097Z,1023.8
2022-10-05T04:25:20.103Z,1023.8
2022-10-05T04:30:20.096Z,1023.7
2022-10-05T04:35:20.104Z,1023.7
2022-10-05T04:40:20.100Z,1023.8
2022-10-05T04:45:20.106Z,1023.7
2022-10-05T04:50:20.097Z,1023.8
2022-10-05T04:55:20.109Z,1023.9
2022-10-05T05:00:20.101Z,1023.9
2022-10-05T05:05:20.117Z,1023.9
2022-10-05T05:10:20.103Z,1023.9
2022-10-05T05:15:20.122Z,1024
2022-10-05T05:20:20.100Z,1024
2022-10-05T05:25:20.119Z,1024
2022-10-05T05:30:20.097Z,1024.1
2022-10-05T05:35:20.108Z,1024.1
2022-10-05T05:40:20.103Z,1024.2
2022-10-05T05:45:20.113Z,1024.3
2022-10-05T05:50:20.100Z,1024.3
2022-10-05T05:55:20.113Z,1024.3
2022-10-05T06:00:20.117Z,1024.3
2022-10-05T06:05:20.111Z,1024.2
2022-10-05T06:10:20.104Z,1024.3
2022-10-05T06:15:20.108Z,1024.3
2022-10-05T06:20:20.107Z,1024.3
2022-10-05T06:25:20.132Z,1024.3
2022-10-05T06:30:20.120Z,1024.5
2022-10-05T06:35:20.121Z,1024.6
2022-10-05T06:40:20.120Z,1024.6
2022-10-05T06:45:20.123Z,1024.6
2022-10-05T06:50:20.104Z,1024.6
2022-10-05T06:55:20.115Z,1024.6
2022-10-05T07:00:20.107Z,1024.6
2022-10-05T07:05:20.112Z,1024.8
2022-10-05T07:10:20.101Z,1024.8
2022-10-05T07:15:20.102Z,1024.7
2022-10-05T07:20:20.102Z,1024.7
2022-10-05T07:25:20.101Z,1024.8
2022-10-05T07:30:20.106Z,1024.8
2022-10-05T07:35:20.114Z,1024.8
2022-10-05T07:40:20.101Z,1024.8
2022-10-05T07:45:20.111Z,1024.8
2022-10-05T07:50:20.097Z,1024.7
2022-10-05T07:55:20.107Z,1024.8
2022-10-05T08:00:20.099Z,1024.7
2022-10-05T08:05:20.102Z,1024.7
2022-10-05T08:10:20.103Z,1024.7
2022-10-05T08:15:20.101Z,1024.8
2022-10-05T08:20:20.098Z,1024.6
2022-10-05T08:25:20.107Z,1024.6
2022-10-05T08:30:20.145Z,1024.5
2022-10-05T08:35:20.112Z,1024.5
2022-10-05T08:40:20.181Z,1024.4
2022-10-05T08:45:20.105Z,1024.5
2022-10-05T08:50:20.139Z,1024.5
2022-10-05T08:55:20.101Z,1024.3
2022-10-05T09:00:20.110Z,1024.3
2022-10-05T09:05:20.101Z,1024.3
2022-10-05T09:10:20.109Z,1024.3
2022-10-05T09:15:25.636Z,1024.2
2022-10-05T09:20:20.114Z,1024.2
2022-10-05T09:25:20.107Z,1024.2
2022-10-05T09:30:20.109Z,1024.1
2022-10-05T09:35:20.125Z,1024.2
2022-10-05T09:40:20.094Z,1024
2022-10-05T09:45:21.414Z,1024.1
2022-10-05T09:50:20.099Z,1024.1
2022-10-05T09:55:20.115Z,1024.1
2022-10-05T10:00:20.112Z,1024.1
2022-10-05T10:05:20.126Z,1023.9
2022-10-05T10:10:20.103Z,1023.8
2022-10-05T10:15:20.105Z,1023.8
2022-10-05T10:20:20.102Z,1023.8
2022-10-05T10:25:20.104Z,1023.8
2022-10-05T10:30:20.099Z,1023.7
2022-10-05T10:35:20.278Z,1023.7
2022-10-05T10:40:20.097Z,1023.7
2022-10-05T10:45:20.102Z,1023.7
2022-10-05T10:50:20.110Z,1023.6
2022-10-05T10:55:20.111Z,1023.6
2022-10-05T11:00:20.113Z,1023.4
2022-10-05T11:05:20.103Z,1023.5
2022-10-05T11:10:20.092Z,1023.3
2022-10-05T11:15:20.102Z,1023.3
2022-10-05T11:20:20.100Z,1023.3
2022-10-05T11:25:20.103Z,1023.3
2022-10-05T11:30:20.097Z,1023.2
2022-10-05T11:35:20.101Z,1023.3
2022-10-05T11:40:20.102Z,1023.2
2022-10-05T11:45:20.102Z,1023.2
2022-10-05T11:50:20.099Z,1023.1
2022-10-05T11:55:20.102Z,1023.1
2022-10-05T12:00:20.108Z,1023
2022-10-05T12:05:20.129Z,1022.9
2022-10-05T12:10:20.120Z,1022.9
2022-10-05T12:15:20.119Z,1022.9
2022-10-05T12:20:20.124Z,1022.7
2022-10-05T12:25:20.136Z,1022.7
2022-10-05T12:30:20.114Z,1022.6
2022-10-05T12:35:36.453Z,1022.6
2022-10-05T12:40:20.121Z,1022.6
2022-10-05T12:45:20.117Z,1022.5
2022-10-05T12:50:20.131Z,1022.4
2022-10-05T12:55:20.122Z,1022.3
2022-10-05T13:00:22.861Z,1022.3
2022-10-05T13:05:20.128Z,1022.2
2022-10-05T13:10:20.116Z,1022.2
2022-10-05T13:15:20.121Z,1022.2
2022-10-05T13:20:20.122Z,1022.2
2022-10-05T13:25:20.119Z,1022.2
2022-10-05T13:30:20.114Z,1022.2
2022-10-05T13:35:20.108Z,1022.1
2022-10-05T13:40:20.127Z,1022.1
2022-10-05T13:45:20.103Z,1022.1
2022-10-05T13:50:20.103Z,1022
2022-10-05T13:55:20.107Z,1022
2022-10-05T14:00:22.668Z,1022
2022-10-05T14:05:20.103Z,1022
2022-10-05T14:10:20.095Z,1022
2022-10-05T14:15:20.115Z,1022
2022-10-05T14:20:20.096Z,1021.8
2022-10-05T14:25:20.105Z,1021.8
2022-10-05T14:30:20.098Z,1021.8
2022-10-05T14:35:20.117Z,1021.8
2022-10-05T14:40:20.101Z,1021.7
2022-10-05T14:45:20.114Z,1021.7
2022-10-05T14:50:20.105Z,1021.5
2022-10-05T14:55:20.104Z,1021.5
2022-10-05T15:00:20.101Z,1021.5
2022-10-05T15:05:20.120Z,1021.5
2022-10-05T15:10:20.098Z,1021.4
2022-10-05T15:15:20.105Z,1021.5
2022-10-05T15:20:20.109Z,1021.5
2022-10-05T15:25:20.103Z,1021.4
2022-10-05T15:30:20.098Z,1021.5
2022-10-05T15:35:20.113Z,1021.4
2022-10-05T15:40:20.096Z,1021.5
2022-10-05T15:45:20.112Z,1021.5
2022-10-05T15:50:20.094Z,1021.3
2022-10-05T15:55:20.325Z,1021.4
2022-10-05T16:00:20.104Z,1021.3
2022-10-05T16:05:20.112Z,1021.3
2022-10-05T16:10:20.098Z,1021.4
2022-10-05T16:15:20.103Z,1021.4
2022-10-05T16:20:20.101Z,1021.4
2022-10-05T16:25:20.111Z,1021.3
2022-10-05T16:30:20.095Z,1021.4
2022-10-05T16:35:20.101Z,1021.4
2022-10-05T16:40:20.109Z,1021.4
2022-10-05T16:45:20.101Z,1021.4
2022-10-05T16:50:20.094Z,1021.4
2022-10-05T16:55:20.112Z,1021.4
2022-10-05T17:00:20.097Z,1021.3
2022-10-05T17:05:20.119Z,1021.3
2022-10-05T17:10:20.094Z,1021.5
2022-10-05T17:15:20.124Z,1021.6
2022-10-05T17:20:20.092Z,1021.6
2022-10-05T17:25:20.105Z,1021.6
2022-10-05T17:30:20.096Z,1021.5
2022-10-05T17:35:20.105Z,1021.7
2022-10-05T17:40:20.912Z,1021.7
2022-10-05T17:45:20.118Z,1021.8
2022-10-05T17:50:20.112Z,1021.7
2022-10-05T17:55:20.121Z,1021.7
2022-10-05T18:00:20.100Z,1021.7
2022-10-05T18:05:20.109Z,1021.8
2022-10-05T18:10:20.101Z,1021.9
2022-10-05T18:15:20.110Z,1021.7
2022-10-05T18:20:20.110Z,1021.8
2022-10-05T18:25:20.117Z,1021.8
2022-10-05T18:30:20.114Z,1021.9
2022-10-05T18:35:20.109Z,1021.9
2022-10-05T18:40:20.106Z,1022
2022-10-05T18:45:20.116Z,1022
2022-10-05T18:50:20.107Z,1022.1
2022-10-05T18:55:20.101Z,1022.2
2022-10-05T19:00:20.118Z,1022.3
2022-10-05T19:05:42.844Z,1022.3
2022-10-05T19:10:20.109Z,1022.3
2022-10-05T19:15:20.137Z,1022.4
2022-10-05T19:20:20.128Z,1022.5
2022-10-05T19:25:20.126Z,1022.6
2022-10-05T19:30:20.125Z,1022.7
2022-10-05T19:35:20.117Z,1022.8
2022-10-05T19:40:20.102Z,1022.8
2022-10-05T19:45:20.103Z,1022.9
2022-10-05T19:50:20.093Z,1023
2022-10-05T19:55:20.111Z,1023.2
2022-10-05T20:00:20.100Z,1023.2
2022-10-05T20:05:20.112Z,1023.3
2022-10-05T20:10:20.101Z,1023.3
2022-10-05T20:15:20.098Z,1023.4
2022-10-05T20:20:20.095Z,1023.4
2022-10-05T20:25:20.108Z,1023.4
2022-10-05T20:30:20.102Z,1023.4
2022-10-05T20:35:20.109Z,1023.5
2022-10-05T20:40:20.114Z,1023.6
2022-10-05T20:45:20.102Z,1023.8
2022-10-05T20:50:20.103Z,1023.8
2022-10-05T20:55:20.116Z,1024
2022-10-05T21:00:20.099Z,1024
2022-10-05T21:05:20.193Z,1024
2022-10-05T21:10:20.107Z,1024.1
2022-10-05T21:15:20.106Z,1024.2
2022-10-05T21:20:20.095Z,1024.3
2022-10-05T21:25:20.102Z,1024.4
2022-10-05T21:30:20.106Z,1024.4
2022-10-05T21:35:20.104Z,1024.4
2022-10-05T21:40:20.104Z,1024.4
2022-10-05T21:45:20.106Z,1024.4
2022-10-05T21:50:20.102Z,1024.5
2022-10-05T21:55:20.105Z,1024.5
2022-10-05T22:00:20.107Z,1024.6
2022-10-05T22:05:20.189Z,1024.6
2022-10-05T22:10:20.105Z,1024.6
2022-10-05T22:15:20.105Z,1024.6
2022-10-05T22:20:20.107Z,1024.7
2022-10-05T22:25:20.100Z,1024.7
2022-10-05T22:30:20.107Z,1024.8
2022-10-05T22:35:20.107Z,1024.8
2022-10-05T22:40:20.112Z,1024.9
2022-10-05T22:45:20.112Z,1024.9
2022-10-05T22:50:20.101Z,1024.9
2022-10-05T22:55:20.119Z,1025
2022-10-05T23:00:22.382Z,1025
2022-10-05T23:05:20.125Z,1025
2022-10-05T23:10:20.101Z,1025
2022-10-05T23:15:20.114Z,1025
2022-10-05T23:20:20.099Z,1025.1
2022-10-05T23:25:20.105Z,1025.2
2022-10-05T23:30:20.111Z,1025.3
2022-10-05T23:35:20.112Z,1025.3
2022-10-05T23:40:20.101Z,1025.3
2022-10-05T23:45:20.106Z,1025.4
2022-10-05T23:50:20.120Z,1025.4
2022-10-05T23:55:20.101Z,1025.3
